Time;durP1;ratioP1;P1;durP2;ratioP2;P2;SDS_P1;SDS_P2;PMS_P1;PMS_P2;Temp;Humidity;BMP_temperature;BMP_pressure;BME280_temperature;BME280_humidity;BME280_pressure;Samples;Min_cycle;Max_cycle;Signal;HPM_P1;HPM_P2
2022/01/15 10:08:37;;;;;;;1.50;0.60;;;;;;;4.64;52.03;98531.21;102375;1298;615585;-23
2022/01/15 10:11:11;;;;;;;0.50;0.40;;;;;;;3.96;53.88;98533.60;104442;1284;61169;-23
2022/01/15 10:13:44;;;;;;;;;;;;;;;2.95;56.30;98503.98;104453;1284;61891;-23
2022/01/15 10:16:15;;;;;;;3.70;0.80;;;;;;;2.22;58.85;98514.84;104246;1284;74070;-23
2022/01/15 10:18:44;;;;;;;3.70;0.50;;;;;;;1.48;61.24;98510.73;104282;1284;75025;-23
2022/01/15 10:21:14;;;;;;;4.00;0.80;;;;;;;1.40;62.32;98536.30;104264;1281;237274;-23
2022/01/15 10:23:50;;;;;;;3.30;1.20;;;;;;;1.07;63.43;98523.44;105090;1274;61904;-23
2022/01/15 10:26:24;;;;;;;5.00;0.90;;;;;;;0.84;64.07;98525.95;104878;1274;61140;-22
2022/01/15 10:28:56;;;;;;;1.30;0.70;;;;;;;0.57;65.03;98536.66;104781;1274;73948;-22
2022/01/15 10:31:26;;;;;;;1.60;0.70;;;;;;;0.50;65.37;98532.89;104855;1274;75968;-23
2022/01/15 10:33:54;;;;;;;4.50;1.00;;;;;;;0.38;65.95;98528.16;104703;1275;74798;-23
2022/01/15 10:36:24;;;;;;;2.40;0.90;;;;;;;0.29;66.07;98537.79;104589;1275;61058;-23
2022/01/15 10:38:52;;;;;;;2.10;0.80;;;;;;;0.24;66.58;98548.64;104562;1275;61259;-23
2022/01/15 10:41:30;;;;;;;3.30;0.90;;;;;;;0.16;66.77;98535.02;104803;1274;74659;-22
2022/01/15 10:43:57;;;;;;;3.70;0.70;;;;;;;0.12;67.26;98548.86;104690;1275;75811;-23
2022/01/15 10:46:36;;;;;;;2.80;0.80;;;;;;;0.11;67.08;98546.17;104805;1274;73570;-22
2022/01/15 10:49:25;;;;;;;3.50;0.90;;;;;;;-0.01;67.38;98549.80;105112;1274;61130;-22
2022/01/15 10:52:12;;;;;;;3.70;0.90;;;;;;;-0.06;68.03;98548.64;105126;1274;62044;-23
2022/01/15 10:55:09;;;;;;;2.90;0.80;;;;;;;-0.08;68.20;98546.36;105076;1274;74687;-23
2022/01/15 10:57:38;;;;;;;1.80;0.70;;;;;;;-0.12;67.78;98533.23;104852;1274;75972;-23
2022/01/15 11:00:11;;;;;;;1.40;0.70;;;;;;;-0.14;67.77;98513.36;104905;1275;72661;-23
2022/01/15 11:02:44;;;;;;;4.30;0.90;;;;;;;-0.11;67.64;98534.56;105054;1274;61158;-23
2022/01/15 11:05:50;;;;;;;1.90;0.70;;;;;;;-0.17;67.82;98526.94;104771;1275;62286;-23
2022/01/15 11:08:26;;;;;;;;;;;;;;;-0.14;68.38;98550.73;104720;1274;74729;-23
2022/01/15 11:11:05;;;;;;;1.10;0.70;;;;;;;-0.13;68.71;98564.13;104736;1274;75844;-24
2022/01/15 11:13:33;;;;;;;3.90;1.10;;;;;;;-0.14;68.19;98548.50;104785;1274;74660;-23
2022/01/15 11:16:05;;;;;;;1.70;0.80;;;;;;;-0.15;68.43;98557.75;104744;1277;61184;-23
2022/01/15 11:18:35;;;;;;;3.00;0.80;;;;;;;-0.07;68.05;98526.50;104727;1274;61944;-23
2022/01/15 11:21:04;;;;;;;2.10;1.00;;;;;;;0.23;66.90;98544.23;104771;1274;73385;-23
2022/01/15 11:23:36;;;;;;;2.70;1.00;;;;;;;0.50;66.14;98549.80;104459;1274;76190;-23
2022/01/15 11:26:12;;;;;;;2.40;0.80;;;;;;;0.41;65.96;98557.90;104583;1275;72863;-23
2022/01/15 11:28:41;;;;;;;4.70;0.80;;;;;;;0.25;66.46;98548.27;104574;1274;61127;-23
2022/01/15 11:31:25;;;;;;;4.00;0.80;;;;;;;0.20;67.05;98559.41;104556;1274;61023;-23
2022/01/15 11:34:01;;;;;;;3.60;1.10;;;;;;;0.10;66.83;98530.66;104526;1274;74753;-23
2022/01/15 11:36:31;;;;;;;2.20;0.90;;;;;;;0.06;67.96;98581.23;104608;1274;75989;-23
2022/01/15 11:38:59;;;;;;;1.80;0.70;;;;;;;0.01;67.81;98559.25;104571;1274;74386;-23
2022/01/15 11:41:26;;;;;;;4.10;0.90;;;;;;;0.00;67.86;98582.34;104591;1275;61148;-23
2022/01/15 11:44:00;;;;;;;1.30;0.70;;;;;;;-0.03;68.68;98585.70;104804;1274;61835;-23
2022/01/15 11:46:44;;;;;;;3.70;0.80;;;;;;;-0.07;68.46;98582.31;104660;1275;72879;-23
2022/01/15 11:49:40;;;;;;;2.10;0.60;;;;;;;-0.06;68.96;98578.52;104582;1274;74091;-23
2022/01/15 11:52:14;;;;;;;2.00;0.60;;;;;;;-0.04;67.83;98554.02;104668;1274;74295;-23
2022/01/15 11:54:49;;;;;;;2.00;0.80;;;;;;;0.28;66.48;98539.07;104608;1274;61161;-23
2022/01/15 11:57:23;;;;;;;2.90;0.90;;;;;;;0.47;66.33;98567.70;104739;1274;62784;-23
2022/01/15 11:59:52;;;;;;;2.70;0.80;;;;;;;0.29;66.89;98559.65;104769;1274;74729;-23
2022/01/15 12:02:40;;;;;;;1.30;0.60;;;;;;;0.15;67.19;98568.50;104658;1274;76062;-22
2022/01/15 12:05:17;;;;;;;1.50;0.90;;;;;;;0.14;67.41;98575.23;104576;1274;73174;-23
2022/01/15 12:07:59;;;;;;;3.70;0.70;;;;;;;0.02;67.44;98546.23;104589;1274;61011;-23
2022/01/15 12:10:43;;;;;;;5.10;0.80;;;;;;;0.02;67.78;98573.88;104451;1277;61019;-23
2022/01/15 12:13:18;;;;;;;2.30;0.80;;;;;;;-0.03;68.39;98597.48;104773;1274;71807;-24
2022/01/15 12:15:46;;;;;;;4.50;0.90;;;;;;;-0.05;68.35;98602.39;104639;1275;75959;-25
2022/01/15 12:18:19;;;;;;;3.80;1.10;;;;;;;-0.12;68.45;98598.41;104607;1274;74436;-23
2022/01/15 12:20:49;;;;;;;2.90;1.00;;;;;;;-0.11;68.54;98608.27;104664;1275;61243;-23
2022/01/15 12:23:16;;;;;;;1.20;0.60;;;;;;;0.11;68.04;98598.90;104548;1274;62380;-23
2022/01/15 12:25:44;;;;;;;2.50;0.80;;;;;;;0.30;67.18;98609.14;104587;1274;73765;-23
2022/01/15 12:28:16;;;;;;;1.70;0.80;;;;;;;0.29;67.01;98603.39;104553;1274;76148;-23
2022/01/15 12:30:50;;;;;;;5.90;1.30;;;;;;;0.23;67.22;98606.73;104691;1274;72324;-25
2022/01/15 12:33:23;;;;;;;2.10;0.90;;;;;;;0.30;66.88;98609.30;104725;1274;61287;-23
2022/01/15 12:35:57;;;;;;;2.70;0.90;;;;;;;0.10;67.22;98615.68;104734;1275;61219;-23
2022/01/15 12:38:26;;;;;;;2.20;0.80;;;;;;;0.07;67.60;98621.42;104775;1274;74007;-24
2022/01/15 12:41:01;;;;;;;5.60;0.80;;;;;;;0.01;67.82;98622.91;104626;1274;74948;-25
2022/01/15 12:43:35;;;;;;;3.30;0.80;;;;;;;0.00;67.76;98627.05;104602;1277;74390;-22
2022/01/15 12:46:06;;;;;;;1.10;0.50;;;;;;;-0.02;68.22;98623.90;104632;1277;61464;-22
2022/01/15 12:48:36;;;;;;;3.60;0.90;;;;;;;-0.04;67.69;98608.30;104722;1277;61178;-22
2022/01/15 12:51:31;;;;;;;2.60;0.90;;;;;;;-0.06;67.62;98605.30;104626;1277;74614;-22
2022/01/15 12:54:00;;;;;;;2.10;0.70;;;;;;;-0.03;67.95;98640.64;104705;1276;75972;-22
2022/01/15 12:56:31;;;;;;;2.20;0.70;;;;;;;0.30;67.15;98650.96;104546;1277;73356;-22
2022/01/15 12:59:01;;;;;;;3.80;1.10;;;;;;;0.55;66.22;98662.30;104562;1274;61052;-22
2022/01/15 13:01:31;;;;;;;2.00;0.70;;;;;;;0.44;66.03;98652.73;104576;1274;61132;-22
2022/01/15 13:04:00;;;;;;;2.80;0.80;;;;;;;0.36;66.46;98661.45;104601;1274;73724;-22
2022/01/15 13:06:28;;;;;;;3.90;0.90;;;;;;;0.32;66.56;98652.42;105145;1271;74381;-22
2022/01/15 13:08:59;;;;;;;2.40;0.80;;;;;;;0.24;66.47;98657.91;105151;1271;74328;-24
2022/01/15 13:11:28;;;;;;;3.70;1.20;;;;;;;0.11;67.22;98664.27;105064;1272;61228;-24
2022/01/15 13:14:02;;;;;;;2.00;0.90;;;;;;;0.04;67.82;98679.45;105101;1272;61176;-24
2022/01/15 13:16:32;;;;;;;2.00;0.80;;;;;;;-0.01;67.58;98657.81;105120;1271;74753;-23
2022/01/15 13:19:03;;;;;;;2.20;0.70;;;;;;;-0.03;67.69;98663.55;105123;1272;75927;-23
2022/01/15 13:21:33;;;;;;;3.80;0.90;;;;;;;-0.06;67.92;98684.81;104785;1274;73080;-23
2022/01/15 13:24:03;;;;;;;2.80;0.70;;;;;;;-0.08;68.16;98696.36;104786;1271;61090;-24
2022/01/15 13:26:35;;;;;;;2.50;0.80;;;;;;;-0.01;68.51;98693.81;104824;1271;61914;-24
2022/01/15 13:29:07;;;;;;;1.30;0.70;;;;;;;0.41;67.01;98700.52;104673;1271;74158;-23
2022/01/15 13:31:39;;;;;;;2.60;0.80;;;;;;;0.47;66.04;98699.55;104878;1271;75821;-23
2022/01/15 13:34:11;;;;;;;3.80;1.10;;;;;;;0.46;65.91;98702.84;104810;1272;74397;-23
2022/01/15 13:36:40;;;;;;;1.50;0.60;;;;;;;0.32;66.56;98721.41;104607;1275;61382;-23
2022/01/15 13:39:08;;;;;;;5.10;1.10;;;;;;;0.27;66.70;98718.39;104856;1274;61140;-23
2022/01/15 13:41:37;;;;;;;3.10;1.10;;;;;;;0.15;66.95;98713.98;104844;1271;74506;-24
2022/01/15 13:44:06;;;;;;;1.40;0.70;;;;;;;0.09;67.30;98737.45;105105;1272;75954;-23
2022/01/15 13:46:42;;;;;;;1.70;0.60;;;;;;;0.09;67.68;98748.02;105009;1271;74138;-23
2022/01/15 13:49:34;;;;;;;4.40;0.80;;;;;;;0.01;67.62;98749.56;105164;1271;61243;-23
2022/01/15 13:54:59;;;;;;;3.60;0.80;;;;;;;-0.05;67.66;98752.23;105169;1271;74816;-23
2022/01/15 13:57:27;;;;;;;3.50;0.70;;;;;;;-0.03;67.92;98756.75;105030;1271;75802;-23
2022/01/15 13:59:59;;;;;;;1.00;0.50;;;;;;;-0.04;67.88;98762.74;105009;1274;73062;-23
2022/01/15 14:02:29;;;;;;;1.70;0.70;;;;;;;0.25;67.07;98769.88;105158;1271;61154;-23
2022/01/15 14:05:09;;;;;;;2.40;0.80;;;;;;;0.43;66.49;98776.28;105161;1271;61857;-23
2022/01/15 14:07:37;;;;;;;2.80;0.60;;;;;;;0.41;66.96;98780.45;105146;1271;74582;-24
2022/01/15 14:10:13;;;;;;;1.00;0.50;;;;;;;0.29;66.98;98771.76;104940;1271;75873;-24
2022/01/15 14:12:40;;;;;;;2.50;0.90;;;;;;;0.20;67.02;98769.25;105121;1271;74186;-23
2022/01/15 14:15:15;;;;;;;1.50;0.70;;;;;;;0.14;67.52;98783.34;105190;1271;61144;-23
2022/01/15 14:17:44;;;;;;;3.50;0.90;;;;;;;0.09;67.42;98790.34;105103;1271;61108;-23
2022/01/15 14:22:43;;;;;;;3.50;0.90;;;;;;;0.01;67.70;98781.48;105113;1271;75803;-24
2022/01/15 14:25:25;;;;;;;1.90;0.70;;;;;;;-0.01;67.83;98795.41;105138;1271;73134;-23
2022/01/15 14:28:13;;;;;;;1.60;0.80;;;;;;;-0.04;68.04;98803.87;105155;1271;61148;-23
2022/01/15 14:30:41;;;;;;;1.60;0.80;;;;;;;-0.05;67.77;98793.17;105121;1271;61792;-23
2022/01/15 14:33:10;;;;;;;2.10;0.60;;;;;;;-0.01;68.06;98808.02;105021;1271;74158;-23
2022/01/15 14:35:39;;;;;;;2.00;0.80;;;;;;;0.33;66.56;98799.59;105157;1271;75732;-24
2022/01/15 14:38:07;;;;;;;1.70;0.90;;;;;;;0.46;66.02;98806.02;105104;1271;74537;-23
2022/01/15 14:40:34;;;;;;;2.10;0.80;;;;;;;0.40;66.36;98804.73;104996;1271;62100;-23
2022/01/15 14:43:01;;;;;;;3.80;0.70;;;;;;;0.38;66.29;98818.34;104957;1271;62537;-23
2022/01/15 14:45:29;;;;;;;5.30;0.70;;;;;;;0.27;66.41;98820.86;105175;1271;75421;-24
2022/01/15 14:47:58;;;;;;;3.00;1.00;;;;;;;0.17;67.21;98821.29;105177;1271;75774;-23
2022/01/15 14:50:25;;;;;;;0.90;0.50;;;;;;;0.12;66.69;98823.16;105129;1272;74173;-23
2022/01/15 14:52:52;;;;;;;2.40;0.70;;;;;;;0.07;67.05;98822.37;105266;1271;61458;-23
2022/01/15 14:55:19;;;;;;;2.20;0.80;;;;;;;0.04;67.44;98835.80;105104;1271;61041;-23
2022/01/15 14:57:47;;;;;;;1.20;0.70;;;;;;;0.01;67.57;98838.83;105062;1274;74345;-24
2022/01/15 15:00:15;;;;;;;2.10;0.80;;;;;;;0.00;66.75;98830.16;104872;1274;75795;-24
2022/01/15 15:02:42;;;;;;;3.80;0.90;;;;;;;0.01;67.16;98841.55;105165;1271;73483;-23
2022/01/15 15:05:11;;;;;;;1.50;0.70;;;;;;;-0.03;67.44;98825.02;104851;1272;61083;-23
2022/01/15 15:07:38;;;;;;;2.10;0.90;;;;;;;-0.06;67.77;98829.38;104777;1274;61061;-23
2022/01/15 15:10:18;;;;;;;1.80;0.70;;;;;;;0.26;66.87;98826.84;104766;1271;75623;-23
2022/01/15 15:12:53;;;;;;;1.80;0.70;;;;;;;0.52;66.07;98836.00;104916;1271;74787;-23
2022/01/15 15:15:21;;;;;;;2.80;0.80;;;;;;;0.49;65.84;98847.73;104916;1271;73245;-23
2022/01/15 15:17:54;;;;;;;4.20;0.70;;;;;;;0.31;66.00;98844.23;104920;1271;61160;-23
2022/01/15 15:20:21;;;;;;;2.80;0.80;;;;;;;0.24;66.07;98849.64;104642;1272;61105;-23
2022/01/15 15:22:48;;;;;;;1.50;0.70;;;;;;;0.19;66.44;98860.30;104908;1271;74292;-23
2022/01/15 15:25:15;;;;;;;2.00;0.80;;;;;;;0.13;66.26;98858.99;104859;1272;75963;-24
2022/01/15 15:27:44;;;;;;;4.40;0.90;;;;;;;0.05;66.53;98861.67;105065;1271;74345;-23
2022/01/15 15:30:11;;;;;;;1.80;0.80;;;;;;;0.04;66.98;98866.37;105051;1274;61536;-23
2022/01/15 15:32:44;;;;;;;;;;;;;;;-0.02;67.17;98858.41;104910;1271;62084;-23
2022/01/15 15:35:11;;;;;;;1.20;0.60;;;;;;;-0.03;66.63;98849.91;104954;1271;74408;-23
2022/01/15 15:37:40;;;;;;;1.60;0.80;;;;;;;-0.05;66.69;98864.16;104931;1271;75239;-23
2022/01/15 15:40:08;;;;;;;3.70;1.20;;;;;;;-0.07;67.13;98871.77;104911;1271;73493;-23
2022/01/15 15:42:36;;;;;;;2.00;0.80;;;;;;;-0.06;66.96;98877.54;104966;1271;61091;-25
2022/01/15 15:45:05;;;;;;;2.30;0.70;;;;;;;-0.06;67.03;98856.52;104871;1271;61222;-24
2022/01/15 15:47:35;;;;;;;1.20;0.90;;;;;;;0.23;65.92;98875.65;104889;1271;75577;-23
2022/01/15 15:50:03;;;;;;;4.10;0.70;;;;;;;0.35;65.86;98874.45;105178;1271;74664;-23
2022/01/15 15:52:30;;;;;;;1.80;0.80;;;;;;;0.36;65.66;98884.53;105126;1274;74417;-23
2022/01/15 15:54:57;;;;;;;5.40;1.20;;;;;;;0.22;66.18;98881.83;105171;1271;61057;-23
2022/01/15 15:57:25;;;;;;;2.10;0.80;;;;;;;0.16;66.10;98886.86;105220;1271;61172;-23
2022/01/15 15:59:54;;;;;;;2.40;0.70;;;;;;;0.11;66.46;98891.67;104863;1272;74032;-23
2022/01/15 16:02:21;;;;;;;2.90;1.00;;;;;;;0.04;66.74;98902.71;104870;1274;76085;-23
2022/01/15 16:04:48;;;;;;;2.00;0.70;;;;;;;-0.00;66.89;98901.02;104843;1272;74358;-23
2022/01/15 16:07:17;;;;;;;1.40;0.60;;;;;;;-0.05;67.21;98912.98;105146;1271;61266;-22
2022/01/15 16:09:45;;;;;;;1.10;0.60;;;;;;;-0.07;67.15;98912.88;105135;1274;61787;-23
2022/01/15 16:12:12;;;;;;;2.30;0.80;;;;;;;-0.11;67.27;98912.86;105170;1271;74588;-23
2022/01/15 16:14:40;;;;;;;4.30;0.80;;;;;;;-0.11;67.37;98917.31;105119;1271;76392;-23
2022/01/15 16:17:07;;;;;;;1.50;0.60;;;;;;;-0.10;67.45;98915.39;105238;1271;74219;-23
2022/01/15 16:19:35;;;;;;;2.10;0.90;;;;;;;0.20;66.45;98917.27;105278;1271;61054;-23
2022/01/15 16:22:03;;;;;;;1.10;0.60;;;;;;;0.36;65.69;98914.04;105154;1271;62078;-23
2022/01/15 16:24:30;;;;;;;2.40;0.90;;;;;;;0.35;65.42;98918.55;105150;1271;75559;-23
2022/01/15 16:26:58;;;;;;;2.70;0.70;;;;;;;0.32;65.78;98917.11;105151;1271;75009;-23
2022/01/15 16:29:33;;;;;;;2.10;0.80;;;;;;;0.18;66.16;98915.84;105161;1271;74415;-23
2022/01/15 16:32:01;;;;;;;1.70;0.90;;;;;;;0.11;66.60;98927.15;105092;1271;61195;-23
2022/01/15 16:34:28;;;;;;;1.90;0.70;;;;;;;0.05;66.56;98921.27;104815;1272;61106;-23
2022/01/15 16:36:56;;;;;;;2.10;0.80;;;;;;;-0.02;66.78;98918.48;104918;1271;74379;-22
2022/01/15 16:39:23;;;;;;;3.40;0.80;;;;;;;-0.04;67.10;98929.51;104761;1271;74773;-22
2022/01/15 16:41:51;;;;;;;3.80;1.10;;;;;;;-0.08;67.05;98932.22;104886;1271;73149;-23
2022/01/15 16:44:18;;;;;;;3.10;1.00;;;;;;;-0.09;67.38;98924.76;104698;1274;61008;-24
2022/01/15 16:46:46;;;;;;;6.00;0.80;;;;;;;-0.10;67.28;98924.79;104933;1271;61164;-23
2022/01/15 16:49:14;;;;;;;2.10;0.80;;;;;;;-0.13;67.25;98934.96;104817;1274;75400;-23
2022/01/15 16:51:41;;;;;;;1.70;0.90;;;;;;;-0.11;67.12;98943.27;104972;1271;74287;-23
2022/01/15 16:54:10;;;;;;;2.90;0.90;;;;;;;-0.01;66.69;98942.20;104896;1271;74192;-23
2022/01/15 16:56:38;;;;;;;1.90;1.00;;;;;;;0.31;65.73;98949.95;105014;1271;61143;-23
2022/01/15 16:59:05;;;;;;;1.90;0.80;;;;;;;0.46;64.98;98947.80;104899;1271;62942;-23
2022/01/15 17:01:32;;;;;;;1.70;0.50;;;;;;;0.38;65.36;98948.65;104909;1271;75561;-23
2022/01/15 17:04:00;;;;;;;2.80;1.00;;;;;;;0.32;65.32;98958.13;104740;1274;75961;-23
2022/01/15 17:06:27;;;;;;;2.80;1.00;;;;;;;0.17;65.75;98956.33;104947;1271;74123;-23
2022/01/15 17:08:55;;;;;;;1.70;0.80;;;;;;;0.12;66.08;98962.83;104950;1271;61821;-23
2022/01/15 17:11:22;;;;;;;1.50;0.80;;;;;;;0.04;66.59;98978.48;104970;1271;61835;-23
2022/01/15 17:13:49;;;;;;;3.50;1.00;;;;;;;0.00;66.28;98970.80;104943;1271;74472;-24
2022/01/15 17:16:16;;;;;;;1.40;0.60;;;;;;;-0.04;66.15;98975.91;104987;1271;76058;-23
2022/01/15 17:18:47;;;;;;;2.70;0.80;;;;;;;-0.05;66.57;98975.09;105098;1271;74450;-23
2022/01/15 17:21:15;;;;;;;4.60;1.10;;;;;;;-0.06;66.24;98982.84;104999;1274;61018;-22
2022/01/15 17:23:42;;;;;;;3.70;0.90;;;;;;;-0.09;66.78;98984.31;105113;1274;61035;-23
2022/01/15 17:26:10;;;;;;;1.80;1.00;;;;;;;-0.11;66.69;98988.14;105172;1271;75512;-23
2022/01/15 17:28:37;;;;;;;2.30;0.80;;;;;;;-0.10;66.63;98986.92;105129;1271;75649;-23
2022/01/15 17:31:06;;;;;;;1.80;1.10;;;;;;;-0.11;66.50;98993.94;105158;1273;73274;-23
2022/01/15 17:33:34;;;;;;;5.60;0.90;;;;;;;-0.14;66.75;98990.96;105021;1271;61038;-23
2022/01/15 17:36:03;;;;;;;1.20;0.80;;;;;;;-0.13;66.73;98995.21;105176;1272;61106;-22
2022/01/15 17:38:32;;;;;;;1.50;0.90;;;;;;;0.17;65.69;98990.82;105093;1272;75575;-23
2022/01/15 17:41:00;;;;;;;2.30;0.90;;;;;;;0.39;64.97;98989.43;105192;1271;75736;-23
2022/01/15 17:43:27;;;;;;;1.80;0.80;;;;;;;0.44;64.43;98996.40;105167;1271;73319;-23
2022/01/15 17:45:54;;;;;;;1.90;0.60;;;;;;;0.30;64.98;99001.73;105175;1271;61130;-23
2022/01/15 17:48:23;;;;;;;1.80;1.10;;;;;;;0.23;64.60;98998.08;105052;1271;61067;-23
2022/01/15 17:50:50;;;;;;;2.20;1.00;;;;;;;0.15;64.86;98992.40;105125;1271;74613;-23
2022/01/15 17:53:18;;;;;;;2.00;0.80;;;;;;;0.08;65.14;99011.48;105148;1271;75912;-23
2022/01/15 17:55:46;;;;;;;1.40;0.80;;;;;;;0.05;65.52;99011.42;105198;1271;74363;-23
2022/01/15 17:58:13;;;;;;;1.80;0.80;;;;;;;-0.02;65.45;99001.78;105013;1271;61015;-23
2022/01/15 18:00:41;;;;;;;2.10;0.80;;;;;;;-0.04;65.44;99004.09;105157;1271;61152;-23
2022/01/15 18:03:09;;;;;;;2.30;1.00;;;;;;;-0.06;65.72;99014.23;105092;1271;75251;-23
2022/01/15 18:05:38;;;;;;;1.40;0.80;;;;;;;-0.04;65.29;99014.14;105141;1271;75784;-24
2022/01/15 18:08:05;;;;;;;2.20;0.80;;;;;;;-0.08;65.54;99016.17;105050;1271;74772;-23
2022/01/15 18:10:33;;;;;;;1.60;0.70;;;;;;;-0.12;65.36;99011.73;104854;1271;61092;-23
2022/01/15 18:13:04;;;;;;;3.10;0.90;;;;;;;-0.10;65.15;99020.71;104714;1271;61927;-23
2022/01/15 18:15:32;;;;;;;1.50;0.70;;;;;;;-0.09;65.12;99014.70;104898;1271;75372;-23
2022/01/15 18:18:00;;;;;;;2.30;0.90;;;;;;;-0.11;65.24;99014.25;104975;1271;75808;-24
2022/01/15 18:20:27;;;;;;;2.10;0.80;;;;;;;-0.12;65.41;99019.58;105029;1271;74326;-23
2022/01/15 18:22:54;;;;;;;1.80;0.80;;;;;;;-0.15;65.73;99025.48;105168;1270;61117;-23
2022/01/15 18:25:22;;;;;;;1.30;0.70;;;;;;;-0.16;65.97;99022.96;105127;1271;61150;-23
2022/01/15 18:27:49;;;;;;;1.50;0.80;;;;;;;-0.18;66.00;99023.38;105172;1271;75596;-23
2022/01/15 18:30:17;;;;;;;2.60;0.80;;;;;;;-0.21;66.48;99028.41;105155;1271;75120;-24
2022/01/15 18:32:46;;;;;;;4.40;1.20;;;;;;;-0.22;66.19;99032.08;105017;1271;74620;-23
2022/01/15 18:35:13;;;;;;;1.50;0.80;;;;;;;-0.22;66.36;99035.31;104780;1271;61198;-23
2022/01/15 18:37:41;;;;;;;3.40;0.70;;;;;;;-0.18;66.29;99043.16;104845;1271;61666;-23
2022/01/15 18:40:09;;;;;;;2.00;0.70;;;;;;;0.23;64.94;99038.71;104857;1271;75781;-23
2022/01/15 18:42:37;;;;;;;2.70;1.00;;;;;;;0.38;64.33;99042.05;104808;1272;74977;-23
2022/01/15 18:45:08;;;;;;;3.20;0.80;;;;;;;0.26;64.12;99044.38;105153;1272;74479;-25
2022/01/15 18:47:37;;;;;;;2.60;0.90;;;;;;;0.21;64.50;99059.10;105101;1271;61133;-23
2022/01/15 18:50:05;;;;;;;2.40;1.00;;;;;;;0.16;64.75;99058.95;104893;1271;61026;-24
2022/01/15 18:52:33;;;;;;;4.00;0.70;;;;;;;0.06;64.40;99058.48;104971;1272;73485;-24
2022/01/15 18:55:00;;;;;;;2.20;1.30;;;;;;;0.01;64.85;99064.67;104823;1272;74299;-24
2022/01/15 18:57:28;;;;;;;3.90;1.00;;;;;;;-0.03;65.04;99088.52;104830;1271;74433;-24
2022/01/15 18:59:55;;;;;;;2.60;1.10;;;;;;;-0.05;64.84;99083.82;104898;1269;61095;-24
2022/01/15 19:02:22;;;;;;;1.90;0.90;;;;;;;-0.03;64.42;99111.56;104855;1271;61163;-24
2022/01/15 19:04:50;;;;;;;2.70;0.80;;;;;;;-0.03;64.49;99126.75;105015;1271;75517;-23
2022/01/15 19:07:20;;;;;;;3.00;0.80;;;;;;;-0.04;64.31;99159.05;104831;1271;77561;-23
2022/01/15 19:09:48;;;;;;;4.30;1.00;;;;;;;-0.04;64.86;99179.05;104868;1271;74965;-23
2022/01/15 19:12:27;;;;;;;3.40;0.90;;;;;;;-0.08;64.93;99124.40;104876;1271;61148;-24
2022/01/15 19:14:55;;;;;;;1.90;0.90;;;;;;;-0.10;64.97;99105.20;105048;1271;61113;-23
2022/01/15 19:17:24;;;;;;;2.90;1.10;;;;;;;-0.13;65.11;99069.29;104921;1271;75368;-24
2022/01/15 19:19:52;;;;;;;4.00;0.80;;;;;;;-0.15;65.12;99007.06;104793;1271;75982;-24
2022/01/15 19:22:19;;;;;;;3.40;0.80;;;;;;;-0.22;65.67;99014.30;105062;1271;72260;-23
2022/01/15 19:24:46;;;;;;;2.70;1.00;;;;;;;-0.25;65.77;98991.42;104946;1271;61203;-24
2022/01/15 19:27:14;;;;;;;1.90;0.80;;;;;;;-0.27;66.23;99016.04;105009;1271;61018;-24
2022/01/15 19:29:42;;;;;;;3.50;0.80;;;;;;;-0.27;66.31;99032.94;104922;1271;74503;-24
2022/01/15 19:32:09;;;;;;;2.00;0.80;;;;;;;-0.25;66.39;99071.08;104904;1271;75068;-24
2022/01/15 19:34:36;;;;;;;2.10;0.80;;;;;;;-0.26;66.52;99089.55;104937;1271;74330;-23
2022/01/15 19:37:04;;;;;;;2.10;0.70;;;;;;;0.01;65.69;99100.48;104890;1271;61160;-24
2022/01/15 19:39:32;;;;;;;1.70;0.80;;;;;;;0.37;64.17;99123.59;104983;1271;61127;-24
2022/01/15 19:41:59;;;;;;;3.70;0.90;;;;;;;0.38;64.14;99138.23;104801;1272;75544;-24
2022/01/15 19:44:28;;;;;;;1.00;0.80;;;;;;;0.36;64.62;99122.92;104966;1271;75782;-24
2022/01/15 19:46:56;;;;;;;3.50;1.20;;;;;;;0.31;64.52;99096.80;104803;1272;74379;-24
2022/01/15 19:49:23;;;;;;;2.90;0.70;;;;;;;0.18;65.21;99106.38;104985;1270;61064;-23
2022/01/15 19:51:51;;;;;;;1.20;0.80;;;;;;;0.05;66.27;99072.70;104772;1271;61106;-24
2022/01/15 19:54:20;;;;;;;3.80;0.90;;;;;;;-0.10;66.37;99035.54;104772;1271;74574;-24
2022/01/15 19:56:48;;;;;;;3.70;0.70;;;;;;;-0.15;66.77;99025.65;104903;1271;75931;-24
2022/01/15 19:59:16;;;;;;;5.30;1.60;;;;;;;-0.19;66.17;98995.42;104842;1271;73290;-23
2022/01/15 20:01:43;;;;;;;2.00;1.00;;;;;;;-0.22;66.86;99007.85;104782;1271;61253;-24
2022/01/15 20:04:13;;;;;;;2.80;1.10;;;;;;;-0.28;66.69;99035.52;104935;1271;61884;-24
2022/01/15 20:06:40;;;;;;;1.90;1.00;;;;;;;-0.34;66.69;99053.12;104942;1271;75294;-24
2022/01/15 20:09:08;;;;;;;1.30;0.80;;;;;;;-0.32;66.69;99062.13;104770;1272;75071;-24
2022/01/15 20:11:36;;;;;;;2.40;0.80;;;;;;;-0.33;66.48;99073.08;104946;1271;74433;-24
2022/01/15 20:14:14;;;;;;;1.50;0.80;;;;;;;-0.33;66.41;99103.95;105012;1271;61140;-23
2022/01/15 20:16:45;;;;;;;4.70;1.10;;;;;;;-0.34;66.52;99087.61;104989;1272;61096;-24
2022/01/15 20:19:12;;;;;;;2.60;1.30;;;;;;;-0.37;66.97;99086.67;105001;1271;74439;-24
2022/01/15 20:21:39;;;;;;;1.50;0.70;;;;;;;-0.36;67.16;99123.85;104928;1271;75859;-24
2022/01/15 20:24:07;;;;;;;1.60;0.90;;;;;;;-0.20;67.21;99099.91;104776;1272;74687;-24
2022/01/15 20:26:36;;;;;;;4.80;1.00;;;;;;;0.25;65.69;99087.66;104929;1271;61083;-23
2022/01/15 20:29:04;;;;;;;1.50;0.80;;;;;;;0.37;65.24;99097.61;105113;1271;61735;-23
2022/01/15 20:31:36;;;;;;;3.90;1.30;;;;;;;0.28;65.44;99096.59;104789;1271;73761;-23
2022/01/15 20:34:03;;;;;;;3.70;1.20;;;;;;;0.13;66.26;99119.36;104914;1271;75040;-24
2022/01/15 20:36:30;;;;;;;2.80;1.10;;;;;;;0.01;66.87;99121.52;104917;1271;74586;-24
2022/01/15 20:38:58;;;;;;;5.60;1.20;;;;;;;-0.08;67.39;99117.58;104910;1271;61062;-23
2022/01/15 20:41:25;;;;;;;4.00;1.10;;;;;;;-0.15;67.79;99121.58;105025;1274;62037;-23
2022/01/15 20:43:52;;;;;;;4.30;1.70;;;;;;;-0.24;67.81;99104.67;105170;1270;75410;-23
2022/01/15 20:46:20;;;;;;;7.10;1.20;;;;;;;-0.23;67.50;99111.26;104713;1274;76018;-23
2022/01/15 20:48:48;;;;;;;3.30;1.10;;;;;;;-0.28;67.53;99113.83;104684;1271;74197;-23
2022/01/15 20:51:15;;;;;;;2.00;1.00;;;;;;;-0.31;67.73;99115.81;105045;1271;61182;-23
2022/01/15 20:53:42;;;;;;;2.90;1.20;;;;;;;-0.32;67.35;99127.97;104912;1271;61898;-23
2022/01/15 20:56:09;;;;;;;4.20;1.10;;;;;;;-0.34;67.05;99123.60;104893;1271;75458;-23
2022/01/15 20:58:37;;;;;;;1.10;0.70;;;;;;;-0.34;67.05;99118.66;104870;1271;75540;-23
2022/01/15 21:01:04;;;;;;;2.30;1.00;;;;;;;-0.33;67.26;99122.03;104797;1271;73364;-23
2022/01/15 21:03:32;;;;;;;2.50;1.10;;;;;;;-0.05;66.45;99114.73;104800;1271;61155;-23
2022/01/15 21:06:01;;;;;;;2.30;0.80;;;;;;;0.26;65.38;99121.25;104851;1271;61199;-24
2022/01/15 21:08:29;;;;;;;2.00;1.10;;;;;;;0.27;65.00;99121.22;104815;1271;75618;-23
2022/01/15 21:11:16;;;;;;;2.30;1.20;;;;;;;0.17;65.56;99118.67;104991;1271;76128;-24
2022/01/15 21:13:44;;;;;;;1.60;0.70;;;;;;;0.02;65.36;99105.07;105104;1271;74654;-23
2022/01/15 21:16:12;;;;;;;1.50;0.60;;;;;;;-0.03;65.11;99108.86;105316;1271;61063;-23
2022/01/15 21:18:40;;;;;;;1.40;0.90;;;;;;;-0.08;65.45;99112.44;105274;1271;61011;-23
2022/01/15 21:21:08;;;;;;;2.10;0.90;;;;;;;-0.16;65.66;99107.77;105138;1271;75469;-23
2022/01/15 21:23:35;;;;;;;2.10;0.70;;;;;;;-0.19;65.80;99110.27;105315;1271;75952;-23
2022/01/15 21:26:07;;;;;;;3.10;1.30;;;;;;;-0.21;65.69;99125.18;105326;1270;72305;-23
2022/01/15 21:28:39;;;;;;;4.60;1.00;;;;;;;-0.31;66.19;99122.12;104944;1271;61147;-23
2022/01/15 21:31:09;;;;;;;5.40;1.00;;;;;;;-0.29;66.48;99130.75;105176;1271;61013;-23
2022/01/15 21:33:36;;;;;;;3.90;1.40;;;;;;;-0.33;66.43;99130.05;105145;1271;76082;-23
2022/01/15 21:36:05;;;;;;;2.40;0.70;;;;;;;-0.35;66.36;99136.76;105348;1271;75794;-23
2022/01/15 21:38:32;;;;;;;4.10;1.10;;;;;;;-0.35;66.56;99149.23;105101;1271;74907;-23
2022/01/15 21:41:00;;;;;;;2.60;0.90;;;;;;;-0.35;66.58;99149.20;105072;1271;61503;-23
2022/01/15 21:43:30;;;;;;;1.60;0.90;;;;;;;-0.37;66.00;99148.44;105224;1271;61833;-23
2022/01/15 21:45:58;;;;;;;2.50;1.20;;;;;;;-0.36;66.19;99157.63;105318;1270;75361;-24
2022/01/15 21:48:25;;;;;;;3.00;0.90;;;;;;;-0.34;66.23;99159.10;105154;1271;74781;-24
2022/01/15 21:50:53;;;;;;;2.50;0.70;;;;;;;-0.35;66.16;99171.06;105142;1271;74344;-23
2022/01/15 21:53:20;;;;;;;2.60;0.80;;;;;;;-0.37;66.28;99168.92;105135;1271;61120;-23
2022/01/15 21:55:48;;;;;;;1.00;0.50;;;;;;;-0.32;65.96;99166.34;105071;1271;61057;-23